sensor_id;sensor_type;location;lat;lon;timestamp;P1;durP1;ratioP1;P2;durP2;ratioP2
42964;SDS011;28604;51.204;22.552;2023-04-08T00:00:05;33.83;;;18.85;;
42964;SDS011;28604;51.204;22.552;2023-04-08T00:02:55;32.95;;;18.63;;
42964;SDS011;28604;51.204;22.552;2023-04-08T00:05:21;34.25;;;18.38;;
42964;SDS011;28604;51.204;22.552;2023-04-08T00:07:47;38.63;;;20.60;;
42964;SDS011;28604;51.204;22.552;2023-04-08T00:10:13;36.88;;;20.13;;
42964;SDS011;28604;51.204;22.552;2023-04-08T00:12:39;31.50;;;18.08;;
42964;SDS011;28604;51.204;22.552;2023-04-08T00:15:05;37.28;;;20.83;;
42964;SDS011;28604;51.204;22.552;2023-04-08T00:17:32;44.60;;;20.60;;
42964;SDS011;28604;51.204;22.552;2023-04-08T00:19:57;41.30;;;19.83;;
42964;SDS011;28604;51.204;22.552;2023-04-08T00:22:23;46.05;;;20.70;;
42964;SDS011;28604;51.204;22.552;2023-04-08T00:24:50;44.92;;;20.88;;
42964;SDS011;28604;51.204;22.552;2023-04-08T00:27:16;41.38;;;21.45;;
42964;SDS011;28604;51.204;22.552;2023-04-08T00:29:42;40.80;;;21.17;;
42964;SDS011;28604;51.204;22.552;2023-04-08T00:32:08;52.47;;;23.80;;
42964;SDS011;28604;51.204;22.552;2023-04-08T00:34:34;44.13;;;21.42;;
42964;SDS011;28604;51.204;22.552;2023-04-08T00:37:02;41.70;;;21.42;;
42964;SDS011;28604;51.204;22.552;2023-04-08T00:39:28;47.17;;;23.10;;
42964;SDS011;28604;51.204;22.552;2023-04-08T00:41:54;43.63;;;22.15;;
42964;SDS011;28604;51.204;22.552;2023-04-08T00:44:22;48.08;;;22.17;;
42964;SDS011;28604;51.204;22.552;2023-04-08T00:46:48;42.33;;;22.33;;
42964;SDS011;28604;51.204;22.552;2023-04-08T00:49:14;44.47;;;22.15;;
42964;SDS011;28604;51.204;22.552;2023-04-08T00:51:41;41.80;;;21.80;;
42964;SDS011;28604;51.204;22.552;2023-04-08T00:54:07;43.47;;;22.30;;
42964;SDS011;28604;51.204;22.552;2023-04-08T00:56:34;41.97;;;20.63;;
42964;SDS011;28604;51.204;22.552;2023-04-08T00:59:00;40.85;;;21.08;;
42964;SDS011;28604;51.204;22.552;2023-04-08T01:01:39;37.95;;;19.00;;
42964;SDS011;28604;51.204;22.552;2023-04-08T01:07:12;36.53;;;19.50;;
42964;SDS011;28604;51.204;22.552;2023-04-08T01:09:45;39.97;;;20.60;;
42964;SDS011;28604;51.204;22.552;2023-04-08T01:12:26;36.75;;;20.38;;
42964;SDS011;28604;51.204;22.552;2023-04-08T01:14:56;40.08;;;20.48;;
42964;SDS011;28604;51.204;22.552;2023-04-08T01:17:31;39.47;;;19.50;;
42964;SDS011;28604;51.204;22.552;2023-04-08T01:19:59;32.95;;;20.02;;
42964;SDS011;28604;51.204;22.552;2023-04-08T01:25:04;38.00;;;18.13;;
42964;SDS011;28604;51.204;22.552;2023-04-08T01:27:33;35.50;;;18.30;;
42964;SDS011;28604;51.204;22.552;2023-04-08T01:30:01;34.17;;;17.90;;
42964;SDS011;28604;51.204;22.552;2023-04-08T01:32:29;36.08;;;20.08;;
42964;SDS011;28604;51.204;22.552;2023-04-08T01:34:58;36.78;;;19.10;;
42964;SDS011;28604;51.204;22.552;2023-04-08T01:37:28;40.15;;;20.00;;
42964;SDS011;28604;51.204;22.552;2023-04-08T01:39:55;41.78;;;21.73;;
42964;SDS011;28604;51.204;22.552;2023-04-08T01:42:23;40.90;;;19.48;;
42964;SDS011;28604;51.204;22.552;2023-04-08T01:44:52;35.00;;;18.77;;
42964;SDS011;28604;51.204;22.552;2023-04-08T01:47:23;34.20;;;18.63;;
42964;SDS011;28604;51.204;22.552;2023-04-08T01:49:53;36.00;;;18.10;;
42964;SDS011;28604;51.204;22.552;2023-04-08T01:52:21;32.72;;;17.65;;
42964;SDS011;28604;51.204;22.552;2023-04-08T01:54:48;30.27;;;17.90;;
42964;SDS011;28604;51.204;22.552;2023-04-08T01:57:16;35.22;;;18.58;;
42964;SDS011;28604;51.204;22.552;2023-04-08T01:59:49;32.65;;;18.48;;
42964;SDS011;28604;51.204;22.552;2023-04-08T02:02:19;34.42;;;17.48;;
42964;SDS011;28604;51.204;22.552;2023-04-08T02:04:46;35.58;;;18.85;;
42964;SDS011;28604;51.204;22.552;2023-04-08T02:07:12;34.17;;;18.08;;
42964;SDS011;28604;51.204;22.552;2023-04-08T02:09:39;34.83;;;17.80;;
42964;SDS011;28604;51.204;22.552;2023-04-08T02:12:06;33.40;;;17.63;;
42964;SDS011;28604;51.204;22.552;2023-04-08T02:14:32;34.38;;;18.90;;
42964;SDS011;28604;51.204;22.552;2023-04-08T02:17:01;36.70;;;19.60;;
42964;SDS011;28604;51.204;22.552;2023-04-08T02:19:35;35.78;;;18.92;;
42964;SDS011;28604;51.204;22.552;2023-04-08T02:22:06;34.83;;;18.85;;
42964;SDS011;28604;51.204;22.552;2023-04-08T02:24:37;40.50;;;20.50;;
42964;SDS011;28604;51.204;22.552;2023-04-08T02:27:04;31.45;;;17.63;;
42964;SDS011;28604;51.204;22.552;2023-04-08T02:29:32;38.63;;;21.08;;
42964;SDS011;28604;51.204;22.552;2023-04-08T02:32:01;36.03;;;20.08;;
42964;SDS011;28604;51.204;22.552;2023-04-08T02:34:29;34.33;;;19.67;;
42964;SDS011;28604;51.204;22.552;2023-04-08T02:36:55;39.42;;;21.00;;
42964;SDS011;28604;51.204;22.552;2023-04-08T02:39:21;38.70;;;19.48;;
42964;SDS011;28604;51.204;22.552;2023-04-08T02:41:56;36.75;;;18.67;;
42964;SDS011;28604;51.204;22.552;2023-04-08T02:44:22;30.88;;;18.10;;
42964;SDS011;28604;51.204;22.552;2023-04-08T02:46:49;32.53;;;17.52;;
42964;SDS011;28604;51.204;22.552;2023-04-08T02:49:15;35.42;;;18.45;;
42964;SDS011;28604;51.204;22.552;2023-04-08T02:51:41;35.72;;;19.33;;
42964;SDS011;28604;51.204;22.552;2023-04-08T02:54:07;30.80;;;17.70;;
42964;SDS011;28604;51.204;22.552;2023-04-08T02:56:33;31.73;;;17.05;;
42964;SDS011;28604;51.204;22.552;2023-04-08T02:58:59;28.70;;;16.27;;
42964;SDS011;28604;51.204;22.552;2023-04-08T03:01:25;35.25;;;17.67;;
42964;SDS011;28604;51.204;22.552;2023-04-08T03:03:51;27.73;;;16.60;;
42964;SDS011;28604;51.204;22.552;2023-04-08T03:06:17;28.83;;;15.88;;
42964;SDS011;28604;51.204;22.552;2023-04-08T03:08:43;29.40;;;16.08;;
42964;SDS011;28604;51.204;22.552;2023-04-08T03:11:09;25.17;;;15.27;;
42964;SDS011;28604;51.204;22.552;2023-04-08T03:13:35;26.50;;;14.93;;
42964;SDS011;28604;51.204;22.552;2023-04-08T03:16:01;30.02;;;16.88;;
42964;SDS011;28604;51.204;22.552;2023-04-08T03:18:27;26.13;;;15.52;;
42964;SDS011;28604;51.204;22.552;2023-04-08T03:20:53;25.27;;;15.95;;
42964;SDS011;28604;51.204;22.552;2023-04-08T03:23:19;30.25;;;16.75;;
42964;SDS011;28604;51.204;22.552;2023-04-08T03:25:45;23.95;;;15.07;;
42964;SDS011;28604;51.204;22.552;2023-04-08T03:28:11;21.42;;;13.88;;
42964;SDS011;28604;51.204;22.552;2023-04-08T03:30:37;29.73;;;15.63;;
42964;SDS011;28604;51.204;22.552;2023-04-08T03:33:02;22.25;;;13.82;;
42964;SDS011;28604;51.204;22.552;2023-04-08T03:35:32;24.90;;;12.95;;
42964;SDS011;28604;51.204;22.552;2023-04-08T03:37:58;24.05;;;14.30;;
42964;SDS011;28604;51.204;22.552;2023-04-08T03:40:24;20.95;;;14.13;;
42964;SDS011;28604;51.204;22.552;2023-04-08T03:42:50;20.15;;;12.05;;
42964;SDS011;28604;51.204;22.552;2023-04-08T03:45:16;25.27;;;12.23;;
42964;SDS011;28604;51.204;22.552;2023-04-08T03:47:42;27.45;;;12.75;;
42964;SDS011;28604;51.204;22.552;2023-04-08T03:50:08;21.73;;;14.05;;
42964;SDS011;28604;51.204;22.552;2023-04-08T03:52:34;22.13;;;13.30;;
42964;SDS011;28604;51.204;22.552;2023-04-08T03:55:00;23.02;;;14.40;;
42964;SDS011;28604;51.204;22.552;2023-04-08T03:57:26;22.73;;;13.15;;
42964;SDS011;28604;51.204;22.552;2023-04-08T03:59:52;19.52;;;13.13;;
42964;SDS011;28604;51.204;22.552;2023-04-08T04:02:18;25.25;;;13.95;;
42964;SDS011;28604;51.204;22.552;2023-04-08T04:04:44;21.70;;;13.98;;
42964;SDS011;28604;51.204;22.552;2023-04-08T04:07:10;22.27;;;13.70;;
42964;SDS011;28604;51.204;22.552;2023-04-08T04:09:36;23.88;;;13.55;;
42964;SDS011;28604;51.204;22.552;2023-04-08T04:12:01;19.58;;;13.13;;
42964;SDS011;28604;51.204;22.552;2023-04-08T04:14:28;20.88;;;13.27;;
42964;SDS011;28604;51.204;22.552;2023-04-08T04:16:53;22.83;;;12.70;;
42964;SDS011;28604;51.204;22.552;2023-04-08T04:19:19;23.83;;;14.05;;
42964;SDS011;28604;51.204;22.552;2023-04-08T04:21:45;18.10;;;11.27;;
42964;SDS011;28604;51.204;22.552;2023-04-08T04:24:11;20.58;;;11.77;;
42964;SDS011;28604;51.204;22.552;2023-04-08T04:26:39;17.27;;;11.52;;
42964;SDS011;28604;51.204;22.552;2023-04-08T04:29:06;21.30;;;12.30;;
42964;SDS011;28604;51.204;22.552;2023-04-08T04:31:32;20.83;;;12.57;;
42964;SDS011;28604;51.204;22.552;2023-04-08T04:33:58;23.55;;;12.45;;
42964;SDS011;28604;51.204;22.552;2023-04-08T04:36:23;19.27;;;12.77;;
42964;SDS011;28604;51.204;22.552;2023-04-08T04:38:49;18.98;;;11.15;;
42964;SDS011;28604;51.204;22.552;2023-04-08T04:41:15;21.60;;;12.93;;
42964;SDS011;28604;51.204;22.552;2023-04-08T04:43:42;20.55;;;13.05;;
42964;SDS011;28604;51.204;22.552;2023-04-08T04:46:07;22.30;;;13.90;;
42964;SDS011;28604;51.204;22.552;2023-04-08T04:48:34;26.20;;;12.98;;
42964;SDS011;28604;51.204;22.552;2023-04-08T04:51:00;25.23;;;14.13;;
42964;SDS011;28604;51.204;22.552;2023-04-08T04:53:28;25.98;;;13.50;;
42964;SDS011;28604;51.204;22.552;2023-04-08T04:55:54;20.88;;;13.35;;
42964;SDS011;28604;51.204;22.552;2023-04-08T04:58:21;23.10;;;13.80;;
42964;SDS011;28604;51.204;22.552;2023-04-08T05:00:46;20.48;;;12.73;;
42964;SDS011;28604;51.204;22.552;2023-04-08T05:03:12;19.83;;;12.52;;
42964;SDS011;28604;51.204;22.552;2023-04-08T05:05:38;20.45;;;13.25;;
42964;SDS011;28604;51.204;22.552;2023-04-08T05:08:05;20.65;;;13.25;;
42964;SDS011;28604;51.204;22.552;2023-04-08T05:10:31;22.58;;;12.60;;
42964;SDS011;28604;51.204;22.552;2023-04-08T05:12:57;21.00;;;13.88;;
42964;SDS011;28604;51.204;22.552;2023-04-08T05:15:23;20.45;;;13.40;;
42964;SDS011;28604;51.204;22.552;2023-04-08T05:17:49;20.73;;;14.15;;
42964;SDS011;28604;51.204;22.552;2023-04-08T05:20:15;18.45;;;12.60;;
42964;SDS011;28604;51.204;22.552;2023-04-08T05:22:41;19.63;;;12.68;;
42964;SDS011;28604;51.204;22.552;2023-04-08T05:25:09;17.73;;;12.52;;
42964;SDS011;28604;51.204;22.552;2023-04-08T05:27:36;20.10;;;13.23;;
42964;SDS011;28604;51.204;22.552;2023-04-08T05:30:02;20.65;;;13.68;;
42964;SDS011;28604;51.204;22.552;2023-04-08T05:32:29;18.58;;;12.77;;
42964;SDS011;28604;51.204;22.552;2023-04-08T05:34:55;21.17;;;13.52;;
42964;SDS011;28604;51.204;22.552;2023-04-08T05:37:21;23.48;;;15.05;;
42964;SDS011;28604;51.204;22.552;2023-04-08T05:39:46;23.48;;;14.82;;
42964;SDS011;28604;51.204;22.552;2023-04-08T05:42:12;26.58;;;16.67;;
42964;SDS011;28604;51.204;22.552;2023-04-08T05:44:38;22.52;;;15.30;;
42964;SDS011;28604;51.204;22.552;2023-04-08T05:47:08;24.88;;;15.50;;
42964;SDS011;28604;51.204;22.552;2023-04-08T05:49:34;22.48;;;16.20;;
42964;SDS011;28604;51.204;22.552;2023-04-08T05:52:00;24.27;;;16.23;;
42964;SDS011;28604;51.204;22.552;2023-04-08T05:54:28;27.60;;;17.58;;
42964;SDS011;28604;51.204;22.552;2023-04-08T05:56:54;25.35;;;18.65;;
42964;SDS011;28604;51.204;22.552;2023-04-08T05:59:20;38.72;;;20.48;;
42964;SDS011;28604;51.204;22.552;2023-04-08T06:01:46;29.33;;;18.52;;
42964;SDS011;28604;51.204;22.552;2023-04-08T06:04:12;27.90;;;17.52;;
42964;SDS011;28604;51.204;22.552;2023-04-08T06:06:38;24.67;;;16.40;;
42964;SDS011;28604;51.204;22.552;2023-04-08T06:09:06;22.90;;;16.50;;
42964;SDS011;28604;51.204;22.552;2023-04-08T06:11:34;27.05;;;16.55;;
42964;SDS011;28604;51.204;22.552;2023-04-08T06:14:00;29.50;;;17.58;;
42964;SDS011;28604;51.204;22.552;2023-04-08T06:16:26;25.27;;;16.27;;
42964;SDS011;28604;51.204;22.552;2023-04-08T06:18:52;23.98;;;16.33;;
42964;SDS011;28604;51.204;22.552;2023-04-08T06:21:18;21.05;;;14.30;;
42964;SDS011;28604;51.204;22.552;2023-04-08T06:23:43;21.50;;;13.85;;
42964;SDS011;28604;51.204;22.552;2023-04-08T06:26:10;21.38;;;13.93;;
42964;SDS011;28604;51.204;22.552;2023-04-08T06:28:35;20.92;;;13.45;;
42964;SDS011;28604;51.204;22.552;2023-04-08T06:31:01;16.52;;;13.07;;
42964;SDS011;28604;51.204;22.552;2023-04-08T06:33:27;18.02;;;12.80;;
42964;SDS011;28604;51.204;22.552;2023-04-08T06:36:00;18.88;;;12.25;;
42964;SDS011;28604;51.204;22.552;2023-04-08T06:38:28;17.33;;;12.70;;
42964;SDS011;28604;51.204;22.552;2023-04-08T06:40:54;16.48;;;12.82;;
42964;SDS011;28604;51.204;22.552;2023-04-08T06:43:20;25.70;;;12.52;;
42964;SDS011;28604;51.204;22.552;2023-04-08T06:45:46;20.38;;;13.07;;
42964;SDS011;28604;51.204;22.552;2023-04-08T06:48:12;17.38;;;11.82;;
42964;SDS011;28604;51.204;22.552;2023-04-08T06:50:38;16.55;;;12.02;;
42964;SDS011;28604;51.204;22.552;2023-04-08T06:53:04;14.77;;;12.30;;
42964;SDS011;28604;51.204;22.552;2023-04-08T06:55:30;15.35;;;11.23;;
42964;SDS011;28604;51.204;22.552;2023-04-08T06:57:56;13.23;;;10.75;;
42964;SDS011;28604;51.204;22.552;2023-04-08T07:00:22;11.10;;;9.90;;
42964;SDS011;28604;51.204;22.552;2023-04-08T07:02:48;12.82;;;10.63;;
42964;SDS011;28604;51.204;22.552;2023-04-08T07:05:14;14.52;;;9.35;;
42964;SDS011;28604;51.204;22.552;2023-04-08T07:07:40;13.73;;;11.85;;
42964;SDS011;28604;51.204;22.552;2023-04-08T07:10:06;10.75;;;9.65;;
42964;SDS011;28604;51.204;22.552;2023-04-08T07:12:32;10.20;;;9.10;;
42964;SDS011;28604;51.204;22.552;2023-04-08T07:14:58;10.20;;;9.05;;
42964;SDS011;28604;51.204;22.552;2023-04-08T07:17:24;9.30;;;8.40;;
42964;SDS011;28604;51.204;22.552;2023-04-08T07:19:50;10.18;;;9.18;;
42964;SDS011;28604;51.204;22.552;2023-04-08T07:22:16;9.75;;;8.75;;
42964;SDS011;28604;51.204;22.552;2023-04-08T07:24:43;11.20;;;9.55;;
42964;SDS011;28604;51.204;22.552;2023-04-08T07:27:14;13.23;;;9.35;;
42964;SDS011;28604;51.204;22.552;2023-04-08T07:29:41;10.52;;;9.07;;
42964;SDS011;28604;51.204;22.552;2023-04-08T07:32:07;12.73;;;9.63;;
42964;SDS011;28604;51.204;22.552;2023-04-08T07:34:36;11.48;;;10.27;;
42964;SDS011;28604;51.204;22.552;2023-04-08T07:37:02;11.23;;;10.13;;
42964;SDS011;28604;51.204;22.552;2023-04-08T07:39:28;11.10;;;10.00;;
42964;SDS011;28604;51.204;22.552;2023-04-08T07:41:53;14.02;;;9.77;;
42964;SDS011;28604;51.204;22.552;2023-04-08T07:44:20;11.93;;;10.73;;
42964;SDS011;28604;51.204;22.552;2023-04-08T07:46:46;12.00;;;10.52;;
42964;SDS011;28604;51.204;22.552;2023-04-08T07:49:16;15.90;;;12.10;;
42964;SDS011;28604;51.204;22.552;2023-04-08T07:51:42;12.98;;;10.98;;
42964;SDS011;28604;51.204;22.552;2023-04-08T07:54:08;11.98;;;10.30;;
42964;SDS011;28604;51.204;22.552;2023-04-08T07:56:36;15.40;;;10.20;;
42964;SDS011;28604;51.204;22.552;2023-04-08T07:59:05;11.75;;;10.57;;
42964;SDS011;28604;51.204;22.552;2023-04-08T08:01:31;17.25;;;10.68;;
42964;SDS011;28604;51.204;22.552;2023-04-08T08:04:14;12.13;;;10.50;;
42964;SDS011;28604;51.204;22.552;2023-04-08T08:06:40;11.55;;;10.35;;
42964;SDS011;28604;51.204;22.552;2023-04-08T08:09:06;10.32;;;9.30;;
42964;SDS011;28604;51.204;22.552;2023-04-08T08:11:32;11.90;;;9.70;;
42964;SDS011;28604;51.204;22.552;2023-04-08T08:13:58;10.93;;;9.30;;
42964;SDS011;28604;51.204;22.552;2023-04-08T08:16:26;9.25;;;8.43;;
42964;SDS011;28604;51.204;22.552;2023-04-08T08:18:53;10.32;;;9.32;;
42964;SDS011;28604;51.204;22.552;2023-04-08T08:21:19;10.05;;;8.88;;
42964;SDS011;28604;51.204;22.552;2023-04-08T08:23:45;8.00;;;7.40;;
42964;SDS011;28604;51.204;22.552;2023-04-08T08:26:11;9.45;;;8.50;;
42964;SDS011;28604;51.204;22.552;2023-04-08T08:28:37;8.85;;;8.05;;
42964;SDS011;28604;51.204;22.552;2023-04-08T08:31:04;8.70;;;7.95;;
42964;SDS011;28604;51.204;22.552;2023-04-08T08:33:30;8.40;;;7.57;;
42964;SDS011;28604;51.204;22.552;2023-04-08T08:35:57;9.13;;;8.32;;
42964;SDS011;28604;51.204;22.552;2023-04-08T08:38:23;8.85;;;7.95;;
42964;SDS011;28604;51.204;22.552;2023-04-08T08:40:54;9.43;;;8.63;;
42964;SDS011;28604;51.204;22.552;2023-04-08T08:43:21;8.75;;;7.95;;
42964;SDS011;28604;51.204;22.552;2023-04-08T08:45:47;8.48;;;7.78;;
42964;SDS011;28604;51.204;22.552;2023-04-08T08:48:14;9.10;;;8.02;;
42964;SDS011;28604;51.204;22.552;2023-04-08T08:50:40;10.05;;;7.72;;
42964;SDS011;28604;51.204;22.552;2023-04-08T08:53:06;7.75;;;7.10;;
42964;SDS011;28604;51.204;22.552;2023-04-08T08:55:32;7.55;;;6.88;;
42964;SDS011;28604;51.204;22.552;2023-04-08T08:57:59;8.43;;;7.60;;
42964;SDS011;28604;51.204;22.552;2023-04-08T09:00:32;8.10;;;7.35;;
42964;SDS011;28604;51.204;22.552;2023-04-08T09:08:22;8.52;;;7.75;;
42964;SDS011;28604;51.204;22.552;2023-04-08T09:10:52;10.07;;;7.63;;
42964;SDS011;28604;51.204;22.552;2023-04-08T09:13:18;8.65;;;7.82;;
42964;SDS011;28604;51.204;22.552;2023-04-08T09:16:02;7.63;;;7.03;;
42964;SDS011;28604;51.204;22.552;2023-04-08T09:18:30;8.52;;;7.32;;
42964;SDS011;28604;51.204;22.552;2023-04-08T09:21:00;9.35;;;7.85;;
42964;SDS011;28604;51.204;22.552;2023-04-08T09:23:37;7.57;;;6.97;;
42964;SDS011;28604;51.204;22.552;2023-04-08T09:26:13;7.93;;;7.22;;
42964;SDS011;28604;51.204;22.552;2023-04-08T09:28:43;7.93;;;7.32;;
42964;SDS011;28604;51.204;22.552;2023-04-08T09:31:30;7.72;;;7.13;;
42964;SDS011;28604;51.204;22.552;2023-04-08T09:33:57;7.25;;;6.68;;
42964;SDS011;28604;51.204;22.552;2023-04-08T09:36:25;8.02;;;7.32;;
42964;SDS011;28604;51.204;22.552;2023-04-08T09:38:52;7.65;;;6.95;;
42964;SDS011;28604;51.204;22.552;2023-04-08T09:41:19;7.72;;;7.03;;
42964;SDS011;28604;51.204;22.552;2023-04-08T09:43:48;8.23;;;7.57;;
42964;SDS011;28604;51.204;22.552;2023-04-08T09:49:11;8.30;;;7.50;;
42964;SDS011;28604;51.204;22.552;2023-04-08T09:55:20;8.15;;;7.45;;
42964;SDS011;28604;51.204;22.552;2023-04-08T10:00:21;8.38;;;7.68;;
42964;SDS011;28604;51.204;22.552;2023-04-08T10:05:36;7.55;;;6.82;;
42964;SDS011;28604;51.204;22.552;2023-04-08T10:08:05;7.93;;;7.22;;
42964;SDS011;28604;51.204;22.552;2023-04-08T10:10:35;8.43;;;7.72;;
42964;SDS011;28604;51.204;22.552;2023-04-08T10:13:04;7.57;;;6.97;;
42964;SDS011;28604;51.204;22.552;2023-04-08T10:15:32;9.63;;;7.07;;
42964;SDS011;28604;51.204;22.552;2023-04-08T10:23:02;8.18;;;6.78;;
42964;SDS011;28604;51.204;22.552;2023-04-08T10:25:33;6.53;;;5.93;;
42964;SDS011;28604;51.204;22.552;2023-04-08T10:30:45;8.60;;;7.80;;
42964;SDS011;28604;51.204;22.552;2023-04-08T10:33:14;8.32;;;7.05;;
42964;SDS011;28604;51.204;22.552;2023-04-08T10:38:34;8.63;;;7.10;;
42964;SDS011;28604;51.204;22.552;2023-04-08T10:41:00;6.85;;;6.32;;
42964;SDS011;28604;51.204;22.552;2023-04-08T10:43:30;6.13;;;5.68;;
42964;SDS011;28604;51.204;22.552;2023-04-08T10:45:57;6.15;;;5.63;;
42964;SDS011;28604;51.204;22.552;2023-04-08T10:48:24;6.65;;;5.97;;
42964;SDS011;28604;51.204;22.552;2023-04-08T10:51:03;6.53;;;5.32;;
42964;SDS011;28604;51.204;22.552;2023-04-08T10:53:34;6.47;;;5.97;;
42964;SDS011;28604;51.204;22.552;2023-04-08T10:56:10;6.43;;;5.85;;
42964;SDS011;28604;51.204;22.552;2023-04-08T10:58:49;5.20;;;4.90;;
42964;SDS011;28604;51.204;22.552;2023-04-08T11:01:17;10.07;;;6.07;;
42964;SDS011;28604;51.204;22.552;2023-04-08T11:03:44;8.55;;;4.50;;
42964;SDS011;28604;51.204;22.552;2023-04-08T11:06:10;5.60;;;5.20;;
42964;SDS011;28604;51.204;22.552;2023-04-08T11:08:36;6.38;;;5.85;;
42964;SDS011;28604;51.204;22.552;2023-04-08T11:11:03;6.03;;;5.53;;
42964;SDS011;28604;51.204;22.552;2023-04-08T11:13:34;5.78;;;5.20;;
42964;SDS011;28604;51.204;22.552;2023-04-08T11:16:09;5.70;;;5.30;;
42964;SDS011;28604;51.204;22.552;2023-04-08T11:18:37;5.78;;;5.38;;
42964;SDS011;28604;51.204;22.552;2023-04-08T11:21:07;5.50;;;5.10;;
42964;SDS011;28604;51.204;22.552;2023-04-08T11:23:34;5.70;;;5.20;;
42964;SDS011;28604;51.204;22.552;2023-04-08T11:26:01;5.35;;;4.68;;
42964;SDS011;28604;51.204;22.552;2023-04-08T11:28:28;5.25;;;4.85;;
42964;SDS011;28604;51.204;22.552;2023-04-08T11:30:54;6.03;;;5.25;;
42964;SDS011;28604;51.204;22.552;2023-04-08T11:33:23;6.13;;;5.22;;
42964;SDS011;28604;51.204;22.552;2023-04-08T11:35:50;7.15;;;6.45;;
42964;SDS011;28604;51.204;22.552;2023-04-08T11:38:20;5.47;;;4.78;;
42964;SDS011;28604;51.204;22.552;2023-04-08T11:40:54;5.30;;;4.80;;
42964;SDS011;28604;51.204;22.552;2023-04-08T11:43:21;5.25;;;4.85;;
42964;SDS011;28604;51.204;22.552;2023-04-08T11:45:47;5.18;;;4.78;;
42964;SDS011;28604;51.204;22.552;2023-04-08T11:48:14;4.93;;;4.63;;
42964;SDS011;28604;51.204;22.552;2023-04-08T11:50:42;4.90;;;4.60;;
42964;SDS011;28604;51.204;22.552;2023-04-08T11:53:17;5.07;;;4.78;;
42964;SDS011;28604;51.204;22.552;2023-04-08T11:55:44;5.03;;;4.65;;
42964;SDS011;28604;51.204;22.552;2023-04-08T11:58:11;5.10;;;4.80;;
42964;SDS011;28604;51.204;22.552;2023-04-08T12:00:36;5.95;;;5.45;;
42964;SDS011;28604;51.204;22.552;2023-04-08T12:03:03;5.35;;;4.95;;
42964;SDS011;28604;51.204;22.552;2023-04-08T12:05:29;5.18;;;4.78;;
42964;SDS011;28604;51.204;22.552;2023-04-08T12:07:55;5.10;;;4.70;;
42964;SDS011;28604;51.204;22.552;2023-04-08T12:10:21;5.25;;;4.88;;
42964;SDS011;28604;51.204;22.552;2023-04-08T12:12:47;4.95;;;4.65;;
42964;SDS011;28604;51.204;22.552;2023-04-08T12:15:13;5.55;;;5.05;;
42964;SDS011;28604;51.204;22.552;2023-04-08T12:17:39;5.05;;;4.75;;
42964;SDS011;28604;51.204;22.552;2023-04-08T12:20:05;4.40;;;4.00;;
42964;SDS011;28604;51.204;22.552;2023-04-08T12:22:32;4.75;;;4.30;;
42964;SDS011;28604;51.204;22.552;2023-04-08T12:24:58;6.85;;;5.15;;
42964;SDS011;28604;51.204;22.552;2023-04-08T12:27:24;5.68;;;4.72;;
42964;SDS011;28604;51.204;22.552;2023-04-08T12:29:50;4.75;;;4.35;;
42964;SDS011;28604;51.204;22.552;2023-04-08T12:32:17;6.22;;;5.68;;
42964;SDS011;28604;51.204;22.552;2023-04-08T12:34:43;4.88;;;4.53;;
42964;SDS011;28604;51.204;22.552;2023-04-08T12:37:09;4.68;;;4.32;;
42964;SDS011;28604;51.204;22.552;2023-04-08T12:39:35;5.15;;;4.75;;
42964;SDS011;28604;51.204;22.552;2023-04-08T12:42:01;4.95;;;4.32;;
42964;SDS011;28604;51.204;22.552;2023-04-08T12:44:28;4.75;;;4.45;;
42964;SDS011;28604;51.204;22.552;2023-04-08T12:46:54;5.00;;;4.68;;
42964;SDS011;28604;51.204;22.552;2023-04-08T12:49:20;4.32;;;4.00;;
42964;SDS011;28604;51.204;22.552;2023-04-08T12:51:46;5.00;;;4.53;;
42964;SDS011;28604;51.204;22.552;2023-04-08T12:54:11;4.97;;;4.35;;
42964;SDS011;28604;51.204;22.552;2023-04-08T12:56:38;4.10;;;3.80;;
42964;SDS011;28604;51.204;22.552;2023-04-08T12:59:04;4.10;;;3.85;;
42964;SDS011;28604;51.204;22.552;2023-04-08T13:01:30;4.25;;;3.95;;
42964;SDS011;28604;51.204;22.552;2023-04-08T13:03:56;4.30;;;4.00;;
42964;SDS011;28604;51.204;22.552;2023-04-08T13:06:22;4.20;;;3.90;;
42964;SDS011;28604;51.204;22.552;2023-04-08T13:08:48;4.75;;;4.35;;
42964;SDS011;28604;51.204;22.552;2023-04-08T13:11:14;6.03;;;5.53;;
42964;SDS011;28604;51.204;22.552;2023-04-08T13:13:40;6.60;;;6.00;;
42964;SDS011;28604;51.204;22.552;2023-04-08T13:16:06;5.03;;;4.60;;
42964;SDS011;28604;51.204;22.552;2023-04-08T13:18:32;4.50;;;4.07;;
42964;SDS011;28604;51.204;22.552;2023-04-08T13:20:58;4.47;;;4.10;;
42964;SDS011;28604;51.204;22.552;2023-04-08T13:23:24;4.55;;;4.25;;
42964;SDS011;28604;51.204;22.552;2023-04-08T13:25:50;4.97;;;4.40;;
42964;SDS011;28604;51.204;22.552;2023-04-08T13:28:16;3.97;;;3.78;;
42964;SDS011;28604;51.204;22.552;2023-04-08T13:30:42;5.05;;;4.25;;
42964;SDS011;28604;51.204;22.552;2023-04-08T13:33:08;13.63;;;4.63;;
42964;SDS011;28604;51.204;22.552;2023-04-08T13:35:34;5.47;;;4.50;;
42964;SDS011;28604;51.204;22.552;2023-04-08T13:38:00;5.30;;;4.80;;
42964;SDS011;28604;51.204;22.552;2023-04-08T13:40:26;5.45;;;4.05;;
42964;SDS011;28604;51.204;22.552;2023-04-08T13:42:52;6.60;;;4.35;;
42964;SDS011;28604;51.204;22.552;2023-04-08T13:45:18;4.20;;;3.90;;
42964;SDS011;28604;51.204;22.552;2023-04-08T13:47:44;4.93;;;4.45;;
42964;SDS011;28604;51.204;22.552;2023-04-08T13:50:10;4.32;;;3.92;;
42964;SDS011;28604;51.204;22.552;2023-04-08T13:52:36;4.82;;;4.32;;
42964;SDS011;28604;51.204;22.552;2023-04-08T13:55:02;4.88;;;4.47;;
42964;SDS011;28604;51.204;22.552;2023-04-08T13:57:28;4.82;;;4.43;;
42964;SDS011;28604;51.204;22.552;2023-04-08T13:59:55;4.78;;;4.47;;
42964;SDS011;28604;51.204;22.552;2023-04-08T14:02:20;4.70;;;4.30;;
42964;SDS011;28604;51.204;22.552;2023-04-08T14:04:47;6.85;;;4.85;;
42964;SDS011;28604;51.204;22.552;2023-04-08T14:07:13;5.55;;;5.05;;
42964;SDS011;28604;51.204;22.552;2023-04-08T14:09:39;7.68;;;6.38;;
42964;SDS011;28604;51.204;22.552;2023-04-08T14:12:05;8.23;;;6.22;;
42964;SDS011;28604;51.204;22.552;2023-04-08T14:14:31;7.47;;;6.57;;
42964;SDS011;28604;51.204;22.552;2023-04-08T14:16:57;5.82;;;5.18;;
42964;SDS011;28604;51.204;22.552;2023-04-08T14:19:23;8.35;;;6.15;;
42964;SDS011;28604;51.204;22.552;2023-04-08T14:21:49;6.68;;;5.70;;
42964;SDS011;28604;51.204;22.552;2023-04-08T14:24:15;5.78;;;5.20;;
42964;SDS011;28604;51.204;22.552;2023-04-08T14:26:41;6.30;;;5.55;;
42964;SDS011;28604;51.204;22.552;2023-04-08T14:29:07;6.05;;;5.55;;
42964;SDS011;28604;51.204;22.552;2023-04-08T14:31:33;5.97;;;5.47;;
42964;SDS011;28604;51.204;22.552;2023-04-08T14:33:59;8.98;;;6.30;;
42964;SDS011;28604;51.204;22.552;2023-04-08T14:36:26;6.07;;;5.47;;
42964;SDS011;28604;51.204;22.552;2023-04-08T14:38:53;5.22;;;4.72;;
42964;SDS011;28604;51.204;22.552;2023-04-08T14:41:19;8.45;;;5.90;;
42964;SDS011;28604;51.204;22.552;2023-04-08T14:43:46;6.93;;;5.97;;
42964;SDS011;28604;51.204;22.552;2023-04-08T14:46:12;6.15;;;5.65;;
42964;SDS011;28604;51.204;22.552;2023-04-08T14:48:38;6.28;;;5.60;;
42964;SDS011;28604;51.204;22.552;2023-04-08T14:51:04;7.88;;;5.75;;
42964;SDS011;28604;51.204;22.552;2023-04-08T14:53:31;8.23;;;6.15;;